sensor_id;sensor_type;location;lat;lon;timestamp;temperature;humidity
35804;DHT22;21924;51.934;7.414;2022-10-26T00:00:48;9.80;99.90
35804;DHT22;21924;51.934;7.414;2022-10-26T00:03:32;9.80;99.90
35804;DHT22;21924;51.934;7.414;2022-10-26T00:06:18;9.80;99.90
35804;DHT22;21924;51.934;7.414;2022-10-26T00:09:02;9.80;99.90
35804;DHT22;21924;51.934;7.414;2022-10-26T00:11:46;9.80;99.90
35804;DHT22;21924;51.934;7.414;2022-10-26T00:14:30;9.80;99.90
35804;DHT22;21924;51.934;7.414;2022-10-26T00:17:14;9.80;99.90
35804;DHT22;21924;51.934;7.414;2022-10-26T00:19:58;9.80;99.90
35804;DHT22;21924;51.934;7.414;2022-10-26T00:22:43;9.90;99.90
35804;DHT22;21924;51.934;7.414;2022-10-26T00:25:27;9.80;99.90
35804;DHT22;21924;51.934;7.414;2022-10-26T00:28:11;9.80;99.90
35804;DHT22;21924;51.934;7.414;2022-10-26T00:30:59;9.80;99.90
35804;DHT22;21924;51.934;7.414;2022-10-26T00:33:43;9.80;99.90
35804;DHT22;21924;51.934;7.414;2022-10-26T00:36:28;9.90;99.90
35804;DHT22;21924;51.934;7.414;2022-10-26T00:39:12;9.90;99.90
35804;DHT22;21924;51.934;7.414;2022-10-26T00:41:56;9.90;99.90
35804;DHT22;21924;51.934;7.414;2022-10-26T00:47:36;9.90;99.90
35804;DHT22;21924;51.934;7.414;2022-10-26T00:50:24;9.90;99.90
35804;DHT22;21924;51.934;7.414;2022-10-26T00:53:09;9.90;99.90
35804;DHT22;21924;51.934;7.414;2022-10-26T00:55:54;10.00;99.90
35804;DHT22;21924;51.934;7.414;2022-10-26T00:58:38;10.00;99.90
35804;DHT22;21924;51.934;7.414;2022-10-26T01:01:23;10.00;99.90
35804;DHT22;21924;51.934;7.414;2022-10-26T01:04:07;10.00;99.90
35804;DHT22;21924;51.934;7.414;2022-10-26T01:06:51;10.10;99.90
35804;DHT22;21924;51.934;7.414;2022-10-26T01:09:36;10.00;99.90
35804;DHT22;21924;51.934;7.414;2022-10-26T01:12:20;10.10;99.90
35804;DHT22;21924;51.934;7.414;2022-10-26T01:15:04;10.10;99.90
35804;DHT22;21924;51.934;7.414;2022-10-26T01:17:56;10.10;99.90
35804;DHT22;21924;51.934;7.414;2022-10-26T01:23:33;10.20;99.90
35804;DHT22;21924;51.934;7.414;2022-10-26T01:26:31;10.20;99.90
35804;DHT22;21924;51.934;7.414;2022-10-26T01:29:40;10.20;99.90
35804;DHT22;21924;51.934;7.414;2022-10-26T01:32:33;10.20;99.90
35804;DHT22;21924;51.934;7.414;2022-10-26T01:35:32;10.10;99.90
35804;DHT22;21924;51.934;7.414;2022-10-26T01:41:05;10.10;99.90
35804;DHT22;21924;51.934;7.414;2022-10-26T01:43:55;10.10;99.90
35804;DHT22;21924;51.934;7.414;2022-10-26T01:46:42;10.10;99.90
35804;DHT22;21924;51.934;7.414;2022-10-26T01:49:28;10.10;99.90
35804;DHT22;21924;51.934;7.414;2022-10-26T01:52:14;10.10;99.90
35804;DHT22;21924;51.934;7.414;2022-10-26T01:55:01;10.00;99.90
35804;DHT22;21924;51.934;7.414;2022-10-26T01:57:46;10.10;99.90
35804;DHT22;21924;51.934;7.414;2022-10-26T02:00:30;10.00;99.90
35804;DHT22;21924;51.934;7.414;2022-10-26T02:03:21;10.00;99.90
35804;DHT22;21924;51.934;7.414;2022-10-26T02:06:13;10.00;99.90
35804;DHT22;21924;51.934;7.414;2022-10-26T02:09:03;10.00;99.90
35804;DHT22;21924;51.934;7.414;2022-10-26T02:11:50;10.00;99.90
35804;DHT22;21924;51.934;7.414;2022-10-26T02:17:43;10.00;99.90
35804;DHT22;21924;51.934;7.414;2022-10-26T02:20:32;10.00;99.90
35804;DHT22;21924;51.934;7.414;2022-10-26T02:23:17;10.00;99.90
35804;DHT22;21924;51.934;7.414;2022-10-26T02:26:02;10.00;99.90
35804;DHT22;21924;51.934;7.414;2022-10-26T02:28:48;10.00;99.90
35804;DHT22;21924;51.934;7.414;2022-10-26T02:31:33;10.00;99.90
35804;DHT22;21924;51.934;7.414;2022-10-26T02:34:19;10.00;99.90
35804;DHT22;21924;51.934;7.414;2022-10-26T02:37:05;10.00;99.90
35804;DHT22;21924;51.934;7.414;2022-10-26T02:39:50;10.00;99.90
35804;DHT22;21924;51.934;7.414;2022-10-26T02:42:35;10.00;99.90
35804;DHT22;21924;51.934;7.414;2022-10-26T02:45:21;10.00;99.90
35804;DHT22;21924;51.934;7.414;2022-10-26T02:48:07;10.00;99.90
35804;DHT22;21924;51.934;7.414;2022-10-26T02:53:44;10.10;99.90
35804;DHT22;21924;51.934;7.414;2022-10-26T02:56:31;10.00;99.90
35804;DHT22;21924;51.934;7.414;2022-10-26T02:59:18;10.10;99.90
35804;DHT22;21924;51.934;7.414;2022-10-26T03:02:03;10.10;99.90
35804;DHT22;21924;51.934;7.414;2022-10-26T03:04:48;10.10;99.90
35804;DHT22;21924;51.934;7.414;2022-10-26T03:07:32;10.20;99.90
35804;DHT22;21924;51.934;7.414;2022-10-26T03:10:16;10.20;99.90
35804;DHT22;21924;51.934;7.414;2022-10-26T03:13:00;10.20;99.90
35804;DHT22;21924;51.934;7.414;2022-10-26T03:15:44;10.20;99.90
35804;DHT22;21924;51.934;7.414;2022-10-26T03:18:28;10.20;99.90
35804;DHT22;21924;51.934;7.414;2022-10-26T03:21:12;10.20;99.90
35804;DHT22;21924;51.934;7.414;2022-10-26T03:23:56;10.20;99.90
35804;DHT22;21924;51.934;7.414;2022-10-26T03:26:41;10.20;99.90
35804;DHT22;21924;51.934;7.414;2022-10-26T03:29:24;10.30;99.90
35804;DHT22;21924;51.934;7.414;2022-10-26T03:32:09;10.30;99.90
35804;DHT22;21924;51.934;7.414;2022-10-26T03:34:53;10.30;99.90
35804;DHT22;21924;51.934;7.414;2022-10-26T03:37:37;10.30;99.90
35804;DHT22;21924;51.934;7.414;2022-10-26T03:40:21;10.30;99.90
35804;DHT22;21924;51.934;7.414;2022-10-26T03:43:06;10.30;99.90
35804;DHT22;21924;51.934;7.414;2022-10-26T03:45:50;10.30;99.90
35804;DHT22;21924;51.934;7.414;2022-10-26T03:48:34;10.30;99.90
35804;DHT22;21924;51.934;7.414;2022-10-26T03:51:18;10.30;99.90
35804;DHT22;21924;51.934;7.414;2022-10-26T03:54:02;10.40;99.90
35804;DHT22;21924;51.934;7.414;2022-10-26T03:56:47;10.40;99.90
35804;DHT22;21924;51.934;7.414;2022-10-26T03:59:32;10.40;99.90
35804;DHT22;21924;51.934;7.414;2022-10-26T04:02:16;10.40;99.90
35804;DHT22;21924;51.934;7.414;2022-10-26T04:05:00;10.40;99.90
35804;DHT22;21924;51.934;7.414;2022-10-26T04:07:50;10.50;99.90
35804;DHT22;21924;51.934;7.414;2022-10-26T04:10:35;10.50;99.90
35804;DHT22;21924;51.934;7.414;2022-10-26T04:13:19;10.50;99.90
35804;DHT22;21924;51.934;7.414;2022-10-26T04:16:04;10.50;99.90
35804;DHT22;21924;51.934;7.414;2022-10-26T04:18:48;10.50;99.90
35804;DHT22;21924;51.934;7.414;2022-10-26T04:21:32;10.60;99.90
35804;DHT22;21924;51.934;7.414;2022-10-26T04:24:18;10.60;99.90
35804;DHT22;21924;51.934;7.414;2022-10-26T04:27:02;10.70;99.90
35804;DHT22;21924;51.934;7.414;2022-10-26T04:29:46;10.60;99.90
35804;DHT22;21924;51.934;7.414;2022-10-26T04:32:30;10.70;99.90
35804;DHT22;21924;51.934;7.414;2022-10-26T04:35:14;10.70;99.90
35804;DHT22;21924;51.934;7.414;2022-10-26T04:37:59;10.70;99.90
35804;DHT22;21924;51.934;7.414;2022-10-26T04:40:43;10.70;99.90
35804;DHT22;21924;51.934;7.414;2022-10-26T04:43:27;10.80;99.90
35804;DHT22;21924;51.934;7.414;2022-10-26T04:46:11;10.80;99.90
35804;DHT22;21924;51.934;7.414;2022-10-26T04:48:57;10.80;99.90
35804;DHT22;21924;51.934;7.414;2022-10-26T04:51:41;10.70;99.90
35804;DHT22;21924;51.934;7.414;2022-10-26T04:54:25;10.80;99.90
35804;DHT22;21924;51.934;7.414;2022-10-26T04:57:09;10.80;99.90
35804;DHT22;21924;51.934;7.414;2022-10-26T04:59:53;10.90;99.90
35804;DHT22;21924;51.934;7.414;2022-10-26T05:02:37;10.90;99.90
35804;DHT22;21924;51.934;7.414;2022-10-26T05:05:21;10.90;99.90
35804;DHT22;21924;51.934;7.414;2022-10-26T05:08:05;10.90;99.90
35804;DHT22;21924;51.934;7.414;2022-10-26T05:10:49;11.00;99.90
35804;DHT22;21924;51.934;7.414;2022-10-26T05:13:33;10.90;99.90
35804;DHT22;21924;51.934;7.414;2022-10-26T05:16:17;10.90;99.90
35804;DHT22;21924;51.934;7.414;2022-10-26T05:19:01;10.90;99.90
35804;DHT22;21924;51.934;7.414;2022-10-26T05:21:45;10.90;99.90
35804;DHT22;21924;51.934;7.414;2022-10-26T05:24:29;10.90;99.90
35804;DHT22;21924;51.934;7.414;2022-10-26T05:27:13;11.00;99.90
35804;DHT22;21924;51.934;7.414;2022-10-26T05:29:57;11.00;99.90
35804;DHT22;21924;51.934;7.414;2022-10-26T05:32:42;11.00;99.90
35804;DHT22;21924;51.934;7.414;2022-10-26T05:35:26;11.00;99.90
35804;DHT22;21924;51.934;7.414;2022-10-26T05:38:12;11.00;99.90
35804;DHT22;21924;51.934;7.414;2022-10-26T05:40:56;11.00;99.90
35804;DHT22;21924;51.934;7.414;2022-10-26T05:43:42;11.00;99.90
35804;DHT22;21924;51.934;7.414;2022-10-26T05:46:26;11.00;99.90
35804;DHT22;21924;51.934;7.414;2022-10-26T05:49:10;11.00;99.90
35804;DHT22;21924;51.934;7.414;2022-10-26T05:51:54;11.00;99.90
35804;DHT22;21924;51.934;7.414;2022-10-26T05:54:38;11.00;99.90
35804;DHT22;21924;51.934;7.414;2022-10-26T05:57:22;11.00;99.90
35804;DHT22;21924;51.934;7.414;2022-10-26T06:00:14;11.00;99.90
35804;DHT22;21924;51.934;7.414;2022-10-26T06:03:12;11.00;99.90
35804;DHT22;21924;51.934;7.414;2022-10-26T06:05:59;11.10;99.90
35804;DHT22;21924;51.934;7.414;2022-10-26T06:08:43;11.10;99.90
35804;DHT22;21924;51.934;7.414;2022-10-26T06:11:27;11.20;99.90
35804;DHT22;21924;51.934;7.414;2022-10-26T06:14:11;11.20;99.90
35804;DHT22;21924;51.934;7.414;2022-10-26T06:23:13;11.20;99.90
35804;DHT22;21924;51.934;7.414;2022-10-26T06:28:52;11.20;99.90
35804;DHT22;21924;51.934;7.414;2022-10-26T06:31:40;11.30;99.90
35804;DHT22;21924;51.934;7.414;2022-10-26T06:34:24;11.30;99.90
35804;DHT22;21924;51.934;7.414;2022-10-26T06:37:10;11.30;99.90
35804;DHT22;21924;51.934;7.414;2022-10-26T06:39:54;11.30;99.90
35804;DHT22;21924;51.934;7.414;2022-10-26T06:42:40;11.30;99.90
35804;DHT22;21924;51.934;7.414;2022-10-26T06:45:25;11.30;99.90
35804;DHT22;21924;51.934;7.414;2022-10-26T06:48:09;11.40;99.90
35804;DHT22;21924;51.934;7.414;2022-10-26T06:50:56;11.40;99.90
35804;DHT22;21924;51.934;7.414;2022-10-26T06:53:46;11.40;99.90
35804;DHT22;21924;51.934;7.414;2022-10-26T06:56:33;11.50;99.90
35804;DHT22;21924;51.934;7.414;2022-10-26T06:59:22;11.50;99.90
35804;DHT22;21924;51.934;7.414;2022-10-26T07:02:08;11.50;99.90
35804;DHT22;21924;51.934;7.414;2022-10-26T07:04:53;11.50;99.90
35804;DHT22;21924;51.934;7.414;2022-10-26T07:07:40;11.60;99.90
35804;DHT22;21924;51.934;7.414;2022-10-26T07:10:25;11.60;99.90
35804;DHT22;21924;51.934;7.414;2022-10-26T07:13:09;11.60;99.90
35804;DHT22;21924;51.934;7.414;2022-10-26T07:15:53;11.70;99.90
35804;DHT22;21924;51.934;7.414;2022-10-26T07:18:38;11.70;99.90
35804;DHT22;21924;51.934;7.414;2022-10-26T07:21:21;11.80;99.90
35804;DHT22;21924;51.934;7.414;2022-10-26T07:24:06;11.90;99.90
35804;DHT22;21924;51.934;7.414;2022-10-26T07:26:52;11.90;99.90
35804;DHT22;21924;51.934;7.414;2022-10-26T07:29:36;11.90;99.90
35804;DHT22;21924;51.934;7.414;2022-10-26T07:32:20;11.90;99.90
35804;DHT22;21924;51.934;7.414;2022-10-26T07:35:04;12.00;99.90
35804;DHT22;21924;51.934;7.414;2022-10-26T07:37:49;12.10;99.90
35804;DHT22;21924;51.934;7.414;2022-10-26T07:40:33;12.10;99.90
35804;DHT22;21924;51.934;7.414;2022-10-26T07:43:17;12.20;99.90
35804;DHT22;21924;51.934;7.414;2022-10-26T07:46:01;12.20;99.90
35804;DHT22;21924;51.934;7.414;2022-10-26T07:48:46;12.20;99.90
35804;DHT22;21924;51.934;7.414;2022-10-26T07:51:30;12.40;99.90
35804;DHT22;21924;51.934;7.414;2022-10-26T07:54:14;12.30;99.90
35804;DHT22;21924;51.934;7.414;2022-10-26T07:56:58;12.40;99.90
35804;DHT22;21924;51.934;7.414;2022-10-26T07:59:42;12.40;99.90
35804;DHT22;21924;51.934;7.414;2022-10-26T08:02:26;12.40;99.90
35804;DHT22;21924;51.934;7.414;2022-10-26T08:05:10;12.60;99.90
35804;DHT22;21924;51.934;7.414;2022-10-26T08:07:54;12.70;99.90
35804;DHT22;21924;51.934;7.414;2022-10-26T08:10:44;12.80;99.90
35804;DHT22;21924;51.934;7.414;2022-10-26T08:13:29;12.80;99.90
35804;DHT22;21924;51.934;7.414;2022-10-26T08:16:13;12.90;99.90
35804;DHT22;21924;51.934;7.414;2022-10-26T08:18:57;13.00;99.90
35804;DHT22;21924;51.934;7.414;2022-10-26T08:21:41;13.00;99.90
35804;DHT22;21924;51.934;7.414;2022-10-26T08:24:25;13.00;99.90
35804;DHT22;21924;51.934;7.414;2022-10-26T08:27:09;12.90;99.90
35804;DHT22;21924;51.934;7.414;2022-10-26T08:29:53;12.90;99.90
35804;DHT22;21924;51.934;7.414;2022-10-26T08:32:37;13.00;99.90
35804;DHT22;21924;51.934;7.414;2022-10-26T08:35:21;13.10;99.90
35804;DHT22;21924;51.934;7.414;2022-10-26T08:38:05;13.10;99.90
35804;DHT22;21924;51.934;7.414;2022-10-26T08:40:49;13.20;99.90
35804;DHT22;21924;51.934;7.414;2022-10-26T08:43:53;13.30;99.90
35804;DHT22;21924;51.934;7.414;2022-10-26T08:46:41;13.40;99.90
35804;DHT22;21924;51.934;7.414;2022-10-26T08:49:29;13.60;99.90
35804;DHT22;21924;51.934;7.414;2022-10-26T08:52:14;13.80;99.90
35804;DHT22;21924;51.934;7.414;2022-10-26T08:55:00;14.10;99.90
35804;DHT22;21924;51.934;7.414;2022-10-26T08:57:46;14.30;99.90
35804;DHT22;21924;51.934;7.414;2022-10-26T09:00:31;14.40;99.90
35804;DHT22;21924;51.934;7.414;2022-10-26T09:03:15;14.50;99.90
35804;DHT22;21924;51.934;7.414;2022-10-26T09:06:07;14.50;99.90
35804;DHT22;21924;51.934;7.414;2022-10-26T09:09:13;14.50;99.90
35804;DHT22;21924;51.934;7.414;2022-10-26T09:15:04;14.40;99.90
35804;DHT22;21924;51.934;7.414;2022-10-26T09:26:14;14.60;99.90
35804;DHT22;21924;51.934;7.414;2022-10-26T09:29:02;14.70;99.90
35804;DHT22;21924;51.934;7.414;2022-10-26T09:31:47;14.80;99.90
35804;DHT22;21924;51.934;7.414;2022-10-26T09:34:52;14.90;99.90
35804;DHT22;21924;51.934;7.414;2022-10-26T09:37:38;15.00;99.90
35804;DHT22;21924;51.934;7.414;2022-10-26T09:40:27;15.10;99.90
35804;DHT22;21924;51.934;7.414;2022-10-26T09:43:17;15.30;99.90
35804;DHT22;21924;51.934;7.414;2022-10-26T09:46:03;15.40;99.90
35804;DHT22;21924;51.934;7.414;2022-10-26T09:48:48;15.50;99.90
35804;DHT22;21924;51.934;7.414;2022-10-26T09:51:33;15.60;99.90
35804;DHT22;21924;51.934;7.414;2022-10-26T09:54:19;15.60;99.90
35804;DHT22;21924;51.934;7.414;2022-10-26T09:57:04;15.60;99.90
35804;DHT22;21924;51.934;7.414;2022-10-26T09:59:50;15.50;99.90
35804;DHT22;21924;51.934;7.414;2022-10-26T10:02:39;15.60;99.90
35804;DHT22;21924;51.934;7.414;2022-10-26T10:05:33;15.70;99.90
35804;DHT22;21924;51.934;7.414;2022-10-26T10:08:18;15.90;99.90
35804;DHT22;21924;51.934;7.414;2022-10-26T10:11:07;16.00;99.90
35804;DHT22;21924;51.934;7.414;2022-10-26T10:13:52;16.20;99.90
35804;DHT22;21924;51.934;7.414;2022-10-26T10:16:36;16.30;99.90
35804;DHT22;21924;51.934;7.414;2022-10-26T10:19:22;16.50;99.90
35804;DHT22;21924;51.934;7.414;2022-10-26T10:24:57;16.70;99.90
35804;DHT22;21924;51.934;7.414;2022-10-26T10:27:42;16.90;99.90
35804;DHT22;21924;51.934;7.414;2022-10-26T10:30:35;17.10;99.90
35804;DHT22;21924;51.934;7.414;2022-10-26T10:33:19;17.20;99.90
35804;DHT22;21924;51.934;7.414;2022-10-26T10:36:03;17.30;99.90
35804;DHT22;21924;51.934;7.414;2022-10-26T10:38:49;17.30;99.90
35804;DHT22;21924;51.934;7.414;2022-10-26T10:41:34;17.50;99.90
35804;DHT22;21924;51.934;7.414;2022-10-26T10:44:23;17.50;99.90
35804;DHT22;21924;51.934;7.414;2022-10-26T10:47:13;17.70;99.90
35804;DHT22;21924;51.934;7.414;2022-10-26T10:50:17;17.80;99.90
35804;DHT22;21924;51.934;7.414;2022-10-26T10:53:23;17.90;99.90
35804;DHT22;21924;51.934;7.414;2022-10-26T11:07:26;17.90;99.90
35804;DHT22;21924;51.934;7.414;2022-10-26T11:10:13;17.90;99.90
35804;DHT22;21924;51.934;7.414;2022-10-26T11:13:00;18.10;99.90
35804;DHT22;21924;51.934;7.414;2022-10-26T11:15:46;18.40;99.90
35804;DHT22;21924;51.934;7.414;2022-10-26T11:18:33;18.60;99.90
35804;DHT22;21924;51.934;7.414;2022-10-26T11:27:01;19.00;99.90
35804;DHT22;21924;51.934;7.414;2022-10-26T11:32:41;19.20;99.90
35804;DHT22;21924;51.934;7.414;2022-10-26T11:35:41;19.40;99.90
35804;DHT22;21924;51.934;7.414;2022-10-26T11:38:43;19.60;99.90
35804;DHT22;21924;51.934;7.414;2022-10-26T11:41:34;19.70;99.90
35804;DHT22;21924;51.934;7.414;2022-10-26T11:47:27;19.80;99.90
35804;DHT22;21924;51.934;7.414;2022-10-26T11:50:16;19.80;99.90
35804;DHT22;21924;51.934;7.414;2022-10-26T11:55:54;19.80;99.90
35804;DHT22;21924;51.934;7.414;2022-10-26T11:58:39;19.90;99.90
35804;DHT22;21924;51.934;7.414;2022-10-26T12:01:23;19.90;99.90
35804;DHT22;21924;51.934;7.414;2022-10-26T12:04:09;20.00;99.90
35804;DHT22;21924;51.934;7.414;2022-10-26T12:06:53;20.00;99.90
35804;DHT22;21924;51.934;7.414;2022-10-26T12:09:39;20.10;99.90
35804;DHT22;21924;51.934;7.414;2022-10-26T12:15:32;20.00;99.90
35804;DHT22;21924;51.934;7.414;2022-10-26T12:18:23;20.00;99.90
35804;DHT22;21924;51.934;7.414;2022-10-26T12:21:08;20.00;99.90
35804;DHT22;21924;51.934;7.414;2022-10-26T12:23:54;20.00;99.90
35804;DHT22;21924;51.934;7.414;2022-10-26T12:26:46;19.90;99.90
35804;DHT22;21924;51.934;7.414;2022-10-26T12:29:34;20.00;99.90
35804;DHT22;21924;51.934;7.414;2022-10-26T12:41:18;20.00;99.90
35804;DHT22;21924;51.934;7.414;2022-10-26T12:44:29;19.90;99.90
35804;DHT22;21924;51.934;7.414;2022-10-26T12:52:56;19.80;99.90
35804;DHT22;21924;51.934;7.414;2022-10-26T12:58:36;19.80;99.90
35804;DHT22;21924;51.934;7.414;2022-10-26T13:01:34;19.70;99.90
35804;DHT22;21924;51.934;7.414;2022-10-26T13:04:24;19.70;99.90
35804;DHT22;21924;51.934;7.414;2022-10-26T13:07:17;19.70;99.90
35804;DHT22;21924;51.934;7.414;2022-10-26T13:12:52;19.60;99.90
35804;DHT22;21924;51.934;7.414;2022-10-26T13:15:50;19.60;99.90
35804;DHT22;21924;51.934;7.414;2022-10-26T13:18:40;19.50;99.90
35804;DHT22;21924;51.934;7.414;2022-10-26T13:21:24;19.40;99.90
35804;DHT22;21924;51.934;7.414;2022-10-26T13:24:10;19.30;99.90
35804;DHT22;21924;51.934;7.414;2022-10-26T13:32:48;19.10;99.90
35804;DHT22;21924;51.934;7.414;2022-10-26T13:35:33;19.10;99.90
35804;DHT22;21924;51.934;7.414;2022-10-26T13:38:19;19.00;99.90
35804;DHT22;21924;51.934;7.414;2022-10-26T13:41:06;19.00;99.90
35804;DHT22;21924;51.934;7.414;2022-10-26T13:43:50;19.00;99.90
35804;DHT22;21924;51.934;7.414;2022-10-26T13:46:35;19.00;99.90
35804;DHT22;21924;51.934;7.414;2022-10-26T13:49:24;18.90;99.90
35804;DHT22;21924;51.934;7.414;2022-10-26T13:52:22;19.00;99.90
35804;DHT22;21924;51.934;7.414;2022-10-26T13:55:09;18.90;99.90
35804;DHT22;21924;51.934;7.414;2022-10-26T13:58:04;18.90;99.90
35804;DHT22;21924;51.934;7.414;2022-10-26T14:00:59;18.80;99.90
35804;DHT22;21924;51.934;7.414;2022-10-26T14:03:44;18.80;99.90
35804;DHT22;21924;51.934;7.414;2022-10-26T14:06:32;18.80;99.90
35804;DHT22;21924;51.934;7.414;2022-10-26T14:09:17;18.80;99.90
35804;DHT22;21924;51.934;7.414;2022-10-26T14:12:02;18.80;99.90
35804;DHT22;21924;51.934;7.414;2022-10-26T14:14:46;18.70;99.90
35804;DHT22;21924;51.934;7.414;2022-10-26T14:17:31;18.80;99.90
35804;DHT22;21924;51.934;7.414;2022-10-26T14:20:16;18.70;99.90
35804;DHT22;21924;51.934;7.414;2022-10-26T14:23:01;18.70;99.90
35804;DHT22;21924;51.934;7.414;2022-10-26T14:25:47;18.70;99.90
35804;DHT22;21924;51.934;7.414;2022-10-26T14:28:42;18.70;99.90
35804;DHT22;21924;51.934;7.414;2022-10-26T14:31:29;18.70;99.90
35804;DHT22;21924;51.934;7.414;2022-10-26T14:34:14;18.70;99.90
35804;DHT22;21924;51.934;7.414;2022-10-26T14:37:02;18.60;99.90
35804;DHT22;21924;51.934;7.414;2022-10-26T14:39:47;18.60;99.90
35804;DHT22;21924;51.934;7.414;2022-10-26T14:42:33;18.50;99.90
35804;DHT22;21924;51.934;7.414;2022-10-26T14:45:24;18.40;99.90
35804;DHT22;21924;51.934;7.414;2022-10-26T14:48:54;18.30;99.90
35804;DHT22;21924;51.934;7.414;2022-10-26T14:51:19;18.30;99.90
35804;DHT22;21924;51.934;7.414;2022-10-26T14:54:16;18.20;99.90
35804;DHT22;21924;51.934;7.414;2022-10-26T14:57:01;18.20;99.90
35804;DHT22;21924;51.934;7.414;2022-10-26T14:59:58;18.20;99.90
35804;DHT22;21924;51.934;7.414;2022-10-26T15:02:44;18.10;99.90
35804;DHT22;21924;51.934;7.414;2022-10-26T15:05:29;18.10;99.90
35804;DHT22;21924;51.934;7.414;2022-10-26T15:08:39;18.00;99.90
35804;DHT22;21924;51.934;7.414;2022-10-26T15:11:23;17.90;99.90
35804;DHT22;21924;51.934;7.414;2022-10-26T15:14:10;17.80;99.90
35804;DHT22;21924;51.934;7.414;2022-10-26T15:16:55;17.80;99.90
35804;DHT22;21924;51.934;7.414;2022-10-26T15:19:40;17.70;99.90
35804;DHT22;21924;51.934;7.414;2022-10-26T15:22:27;17.60;99.90
35804;DHT22;21924;51.934;7.414;2022-10-26T15:25:15;17.60;99.90
35804;DHT22;21924;51.934;7.414;2022-10-26T15:28:10;17.50;99.90
35804;DHT22;21924;51.934;7.414;2022-10-26T15:36:32;17.20;99.90
35804;DHT22;21924;51.934;7.414;2022-10-26T15:39:16;17.10;99.90
35804;DHT22;21924;51.934;7.414;2022-10-26T15:42:00;17.00;99.90
35804;DHT22;21924;51.934;7.414;2022-10-26T15:44:44;17.00;99.90
35804;DHT22;21924;51.934;7.414;2022-10-26T15:47:31;16.90;99.90
35804;DHT22;21924;51.934;7.414;2022-10-26T15:50:17;16.80;99.90
35804;DHT22;21924;51.934;7.414;2022-10-26T15:53:04;16.70;99.90
35804;DHT22;21924;51.934;7.414;2022-10-26T15:55:52;16.60;99.90
35804;DHT22;21924;51.934;7.414;2022-10-26T15:58:36;16.60;99.90
35804;DHT22;21924;51.934;7.414;2022-10-26T16:01:21;16.60;99.90
35804;DHT22;21924;51.934;7.414;2022-10-26T16:04:07;16.50;99.90
35804;DHT22;21924;51.934;7.414;2022-10-26T16:06:51;16.40;99.90
35804;DHT22;21924;51.934;7.414;2022-10-26T16:09:36;16.40;99.90
35804;DHT22;21924;51.934;7.414;2022-10-26T16:12:20;16.20;99.90
35804;DHT22;21924;51.934;7.414;2022-10-26T16:15:04;16.10;99.90
35804;DHT22;21924;51.934;7.414;2022-10-26T16:17:48;16.10;99.90
35804;DHT22;21924;51.934;7.414;2022-10-26T16:20:33;16.00;99.90
35804;DHT22;21924;51.934;7.414;2022-10-26T16:23:17;15.90;99.90
35804;DHT22;21924;51.934;7.414;2022-10-26T16:26:02;15.80;99.90
35804;DHT22;21924;51.934;7.414;2022-10-26T16:28:46;15.70;99.90
35804;DHT22;21924;51.934;7.414;2022-10-26T16:31:31;15.60;99.90
35804;DHT22;21924;51.934;7.414;2022-10-26T16:34:15;15.50;99.90
35804;DHT22;21924;51.934;7.414;2022-10-26T16:36:59;15.40;99.90
35804;DHT22;21924;51.934;7.414;2022-10-26T16:39:43;15.40;99.90
35804;DHT22;21924;51.934;7.414;2022-10-26T16:42:29;15.20;99.90
35804;DHT22;21924;51.934;7.414;2022-10-26T16:45:13;15.20;99.90
35804;DHT22;21924;51.934;7.414;2022-10-26T16:47:57;15.10;99.90
35804;DHT22;21924;51.934;7.414;2022-10-26T16:50:42;15.10;99.90
35804;DHT22;21924;51.934;7.414;2022-10-26T16:53:26;15.00;99.90
35804;DHT22;21924;51.934;7.414;2022-10-26T16:56:11;15.00;99.90
35804;DHT22;21924;51.934;7.414;2022-10-26T16:58:55;14.90;99.90
35804;DHT22;21924;51.934;7.414;2022-10-26T17:01:40;14.80;99.90
35804;DHT22;21924;51.934;7.414;2022-10-26T17:04:24;14.80;99.90
35804;DHT22;21924;51.934;7.414;2022-10-26T17:07:09;14.80;99.90
35804;DHT22;21924;51.934;7.414;2022-10-26T17:09:53;14.80;99.90
35804;DHT22;21924;51.934;7.414;2022-10-26T17:12:37;14.70;99.90
35804;DHT22;21924;51.934;7.414;2022-10-26T17:15:21;14.70;99.90
35804;DHT22;21924;51.934;7.414;2022-10-26T17:18:05;14.60;99.90
35804;DHT22;21924;51.934;7.414;2022-10-26T17:20:51;14.60;99.90
35804;DHT22;21924;51.934;7.414;2022-10-26T17:23:35;14.50;99.90
35804;DHT22;21924;51.934;7.414;2022-10-26T17:26:20;14.50;99.90
35804;DHT22;21924;51.934;7.414;2022-10-26T17:29:04;14.40;99.90
35804;DHT22;21924;51.934;7.414;2022-10-26T17:31:48;14.40;99.90
35804;DHT22;21924;51.934;7.414;2022-10-26T17:34:32;14.40;99.90
35804;DHT22;21924;51.934;7.414;2022-10-26T17:37:16;14.40;99.90
35804;DHT22;21924;51.934;7.414;2022-10-26T17:40:00;14.30;99.90
35804;DHT22;21924;51.934;7.414;2022-10-26T17:42:44;14.20;99.90
35804;DHT22;21924;51.934;7.414;2022-10-26T17:45:28;14.40;99.90
35804;DHT22;21924;51.934;7.414;2022-10-26T17:48:12;14.40;99.90
35804;DHT22;21924;51.934;7.414;2022-10-26T17:51:03;14.40;99.90
35804;DHT22;21924;51.934;7.414;2022-10-26T17:53:48;14.30;99.90
35804;DHT22;21924;51.934;7.414;2022-10-26T17:56:33;14.30;99.90
35804;DHT22;21924;51.934;7.414;2022-10-26T17:59:17;14.20;99.90
35804;DHT22;21924;51.934;7.414;2022-10-26T18:02:02;14.20;99.90
35804;DHT22;21924;51.934;7.414;2022-10-26T18:04:46;14.10;99.90
35804;DHT22;21924;51.934;7.414;2022-10-26T18:07:31;14.10;99.90
35804;DHT22;21924;51.934;7.414;2022-10-26T18:10:15;14.20;99.90
35804;DHT22;21924;51.934;7.414;2022-10-26T18:12:59;14.10;99.90
35804;DHT22;21924;51.934;7.414;2022-10-26T18:15:43;14.10;99.90
35804;DHT22;21924;51.934;7.414;2022-10-26T18:18:28;14.20;99.90
35804;DHT22;21924;51.934;7.414;2022-10-26T18:21:12;14.20;99.90
35804;DHT22;21924;51.934;7.414;2022-10-26T18:23:58;14.10;99.90
35804;DHT22;21924;51.934;7.414;2022-10-26T18:26:42;14.10;99.90
35804;DHT22;21924;51.934;7.414;2022-10-26T18:29:26;14.10;99.90
35804;DHT22;21924;51.934;7.414;2022-10-26T18:32:10;14.20;99.90
35804;DHT22;21924;51.934;7.414;2022-10-26T18:34:54;14.30;99.90
35804;DHT22;21924;51.934;7.414;2022-10-26T18:37:38;14.40;99.90
35804;DHT22;21924;51.934;7.414;2022-10-26T18:40:22;14.60;99.90
35804;DHT22;21924;51.934;7.414;2022-10-26T18:43:06;14.60;99.90
35804;DHT22;21924;51.934;7.414;2022-10-26T18:45:50;14.70;99.90
35804;DHT22;21924;51.934;7.414;2022-10-26T18:48:34;14.80;99.90
35804;DHT22;21924;51.934;7.414;2022-10-26T18:51:20;14.80;99.90
35804;DHT22;21924;51.934;7.414;2022-10-26T18:54:04;14.80;99.90
35804;DHT22;21924;51.934;7.414;2022-10-26T18:56:48;14.90;99.90
35804;DHT22;21924;51.934;7.414;2022-10-26T18:59:33;14.90;99.90
35804;DHT22;21924;51.934;7.414;2022-10-26T19:02:17;14.80;99.90
35804;DHT22;21924;51.934;7.414;2022-10-26T19:05:01;14.70;99.90
35804;DHT22;21924;51.934;7.414;2022-10-26T19:07:45;14.70;99.90
35804;DHT22;21924;51.934;7.414;2022-10-26T19:10:29;14.50;99.90